sensor_id;sensor_type;location;lat;lon;timestamp;pressure;altitude;pressure_sealevel;temperature;humidity
55656;BME280;41530;52.382;5.270;2023-03-03T00:01:51;102804.28;;;14.43;47.68
55656;BME280;41530;52.382;5.270;2023-03-03T00:04:17;102802.81;;;14.37;47.84
55656;BME280;41530;52.382;5.270;2023-03-03T00:06:44;102794.72;;;14.40;47.73
55656;BME280;41530;52.382;5.270;2023-03-03T00:09:11;102803.56;;;14.39;47.74
55656;BME280;41530;52.382;5.270;2023-03-03T00:11:37;102797.84;;;14.31;47.72
55656;BME280;41530;52.382;5.270;2023-03-03T00:14:17;102804.69;;;14.35;47.62
55656;BME280;41530;52.382;5.270;2023-03-03T00:16:47;102806.41;;;14.36;47.75
55656;BME280;41530;52.382;5.270;2023-03-03T00:19:17;102792.63;;;14.30;47.61
55656;BME280;41530;52.382;5.270;2023-03-03T00:21:45;102800.56;;;14.30;47.74
55656;BME280;41530;52.382;5.270;2023-03-03T00:24:34;102815.28;;;14.35;47.45
55656;BME280;41530;52.382;5.270;2023-03-03T00:27:17;102816.38;;;14.31;47.48
55656;BME280;41530;52.382;5.270;2023-03-03T00:29:52;102795.78;;;14.20;47.51
55656;BME280;41530;52.382;5.270;2023-03-03T00:32:23;102824.25;;;14.33;47.69
55656;BME280;41530;52.382;5.270;2023-03-03T00:34:52;102818.25;;;14.29;47.65
55656;BME280;41530;52.382;5.270;2023-03-03T00:42:38;102824.56;;;14.26;47.56
55656;BME280;41530;52.382;5.270;2023-03-03T00:45:23;102822.94;;;14.24;47.38
55656;BME280;41530;52.382;5.270;2023-03-03T00:47:52;102820.47;;;14.21;47.65
55656;BME280;41530;52.382;5.270;2023-03-03T00:50:26;102833.34;;;14.27;47.39
55656;BME280;41530;52.382;5.270;2023-03-03T00:55:23;102828.47;;;14.19;47.54
55656;BME280;41530;52.382;5.270;2023-03-03T00:57:50;102831.22;;;14.18;47.38
55656;BME280;41530;52.382;5.270;2023-03-03T01:00:16;102846.06;;;14.20;47.67
55656;BME280;41530;52.382;5.270;2023-03-03T01:02:43;102848.66;;;14.22;47.47
55656;BME280;41530;52.382;5.270;2023-03-03T01:05:13;102838.38;;;14.16;47.36
55656;BME280;41530;52.382;5.270;2023-03-03T01:07:40;102840.09;;;14.17;47.40
55656;BME280;41530;52.382;5.270;2023-03-03T01:10:07;102833.84;;;14.18;47.33
55656;BME280;41530;52.382;5.270;2023-03-03T01:12:33;102838.38;;;14.16;47.46
55656;BME280;41530;52.382;5.270;2023-03-03T01:15:01;102832.56;;;14.09;47.35
55656;BME280;41530;52.382;5.270;2023-03-03T01:17:27;102838.38;;;14.16;47.36
55656;BME280;41530;52.382;5.270;2023-03-03T01:19:54;102843.75;;;14.14;47.28
55656;BME280;41530;52.382;5.270;2023-03-03T01:22:21;102844.59;;;14.15;47.27
55656;BME280;41530;52.382;5.270;2023-03-03T01:24:47;102833.56;;;14.07;47.20
55656;BME280;41530;52.382;5.270;2023-03-03T01:27:14;102830.78;;;14.10;47.25
55656;BME280;41530;52.382;5.270;2023-03-03T01:29:40;102832.72;;;14.06;47.42
55656;BME280;41530;52.382;5.270;2023-03-03T01:32:07;102840.31;;;14.12;47.49
55656;BME280;41530;52.382;5.270;2023-03-03T01:34:33;102831.72;;;14.09;47.40
55656;BME280;41530;52.382;5.270;2023-03-03T01:37:00;102835.13;;;14.11;47.42
55656;BME280;41530;52.382;5.270;2023-03-03T01:39:27;102827.41;;;14.06;47.35
55656;BME280;41530;52.382;5.270;2023-03-03T01:41:53;102839.47;;;14.12;47.52
55656;BME280;41530;52.382;5.270;2023-03-03T01:44:20;102835.22;;;14.09;47.35
55656;BME280;41530;52.382;5.270;2023-03-03T01:49:43;102828.34;;;14.05;47.37
55656;BME280;41530;52.382;5.270;2023-03-03T01:52:38;102838.88;;;14.07;47.05
55656;BME280;41530;52.382;5.270;2023-03-03T01:55:20;102842.44;;;14.06;47.13
55656;BME280;41530;52.382;5.270;2023-03-03T01:57:53;102835.59;;;14.02;47.12
55656;BME280;41530;52.382;5.270;2023-03-03T02:00:24;102834.59;;;14.04;47.40
55656;BME280;41530;52.382;5.270;2023-03-03T02:02:50;102831.16;;;14.02;47.10
55656;BME280;41530;52.382;5.270;2023-03-03T02:05:18;102833.03;;;14.00;47.25
55656;BME280;41530;52.382;5.270;2023-03-03T02:07:44;102833.03;;;14.00;47.26
55656;BME280;41530;52.382;5.270;2023-03-03T02:10:14;102830.16;;;14.05;47.28
55656;BME280;41530;52.382;5.270;2023-03-03T02:15:25;102814.22;;;13.89;47.12
55656;BME280;41530;52.382;5.270;2023-03-03T02:17:56;102839.09;;;14.02;47.19
55656;BME280;41530;52.382;5.270;2023-03-03T02:22:59;102829.53;;;14.00;47.09
55656;BME280;41530;52.382;5.270;2023-03-03T02:25:38;102824.31;;;13.98;46.96
55656;BME280;41530;52.382;5.270;2023-03-03T02:28:09;102814.91;;;13.93;47.55
55656;BME280;41530;52.382;5.270;2023-03-03T02:30:37;102832.25;;;13.98;47.17
55656;BME280;41530;52.382;5.270;2023-03-03T02:33:05;102829.78;;;13.95;47.10
55656;BME280;41530;52.382;5.270;2023-03-03T02:35:33;102829.59;;;13.98;47.24
55656;BME280;41530;52.382;5.270;2023-03-03T02:38:19;102822.94;;;13.91;46.99
55656;BME280;41530;52.382;5.270;2023-03-03T02:43:26;102834.22;;;13.95;47.12
55656;BME280;41530;52.382;5.270;2023-03-03T02:45:54;102822.16;;;13.89;47.19
55656;BME280;41530;52.382;5.270;2023-03-03T02:48:21;102831.66;;;13.93;47.28
55656;BME280;41530;52.382;5.270;2023-03-03T02:50:47;102824.00;;;13.87;47.16
55656;BME280;41530;52.382;5.270;2023-03-03T02:53:14;102830.94;;;13.89;47.12
55656;BME280;41530;52.382;5.270;2023-03-03T02:55:40;102826.66;;;13.87;47.21
55656;BME280;41530;52.382;5.270;2023-03-03T02:58:07;102816.25;;;13.84;47.12
55656;BME280;41530;52.382;5.270;2023-03-03T03:00:35;102836.25;;;13.89;47.19
55656;BME280;41530;52.382;5.270;2023-03-03T03:03:01;102827.59;;;13.86;47.13
55656;BME280;41530;52.382;5.270;2023-03-03T03:05:28;102812.84;;;13.82;47.11
55656;BME280;41530;52.382;5.270;2023-03-03T03:07:55;102832.72;;;13.89;47.05
55656;BME280;41530;52.382;5.270;2023-03-03T03:10:21;102833.59;;;13.89;47.12
55656;BME280;41530;52.382;5.270;2023-03-03T03:12:48;102823.34;;;13.83;47.23
55656;BME280;41530;52.382;5.270;2023-03-03T03:15:14;102825.72;;;13.88;47.09
55656;BME280;41530;52.382;5.270;2023-03-03T03:17:41;102826.59;;;13.88;47.07
55656;BME280;41530;52.382;5.270;2023-03-03T03:20:09;102824.00;;;13.87;47.04
55656;BME280;41530;52.382;5.270;2023-03-03T03:22:36;102829.31;;;13.87;47.08
55656;BME280;41530;52.382;5.270;2023-03-03T03:25:02;102817.41;;;13.78;47.16
55656;BME280;41530;52.382;5.270;2023-03-03T03:27:29;102822.56;;;13.81;46.97
55656;BME280;41530;52.382;5.270;2023-03-03T03:29:56;102826.22;;;13.79;46.91
55656;BME280;41530;52.382;5.270;2023-03-03T03:32:22;102820.84;;;13.80;47.18
55656;BME280;41530;52.382;5.270;2023-03-03T03:34:49;102830.41;;;13.83;47.06
55656;BME280;41530;52.382;5.270;2023-03-03T03:37:16;102828.06;;;13.77;47.03
55656;BME280;41530;52.382;5.270;2023-03-03T03:39:42;102829.78;;;13.78;47.22
55656;BME280;41530;52.382;5.270;2023-03-03T03:42:09;102825.44;;;13.77;47.15
55656;BME280;41530;52.382;5.270;2023-03-03T03:44:36;102835.16;;;13.76;46.96
55656;BME280;41530;52.382;5.270;2023-03-03T03:47:03;102849.09;;;13.80;47.07
55656;BME280;41530;52.382;5.270;2023-03-03T03:49:30;102838.81;;;13.74;46.86
55656;BME280;41530;52.382;5.270;2023-03-03T03:51:56;102841.44;;;13.74;46.94
55656;BME280;41530;52.382;5.270;2023-03-03T03:54:23;102847.59;;;13.74;46.95
55656;BME280;41530;52.382;5.270;2023-03-03T03:56:50;102842.22;;;13.76;47.16
55656;BME280;41530;52.382;5.270;2023-03-03T03:59:16;102835.38;;;13.72;47.02
55656;BME280;41530;52.382;5.270;2023-03-03T04:01:43;102846.75;;;13.74;47.02
55656;BME280;41530;52.382;5.270;2023-03-03T04:04:09;102844.88;;;13.76;46.99
55656;BME280;41530;52.382;5.270;2023-03-03T04:06:36;102826.00;;;13.66;47.17
55656;BME280;41530;52.382;5.270;2023-03-03T04:09:03;102849.38;;;13.74;47.09
55656;BME280;41530;52.382;5.270;2023-03-03T04:11:29;102845.03;;;13.73;46.91
55656;BME280;41530;52.382;5.270;2023-03-03T04:13:56;102842.50;;;13.71;47.08
55656;BME280;41530;52.382;5.270;2023-03-03T04:16:23;102846.75;;;13.74;46.96
55656;BME280;41530;52.382;5.270;2023-03-03T04:18:49;102845.97;;;13.72;47.08
55656;BME280;41530;52.382;5.270;2023-03-03T04:21:16;102846.16;;;13.69;46.98
55656;BME280;41530;52.382;5.270;2023-03-03T04:23:43;102839.28;;;13.65;46.91
55656;BME280;41530;52.382;5.270;2023-03-03T04:26:09;102837.56;;;13.64;46.87
55656;BME280;41530;52.382;5.270;2023-03-03T04:28:36;102841.06;;;13.64;47.13
55656;BME280;41530;52.382;5.270;2023-03-03T04:31:03;102840.22;;;13.64;46.96
55656;BME280;41530;52.382;5.270;2023-03-03T04:33:30;102847.22;;;13.65;47.10
55656;BME280;41530;52.382;5.270;2023-03-03T04:35:57;102841.00;;;13.66;46.97
55656;BME280;41530;52.382;5.270;2023-03-03T04:38:23;102847.06;;;13.68;46.91
55656;BME280;41530;52.382;5.270;2023-03-03T04:40:51;102847.22;;;13.65;46.78
55656;BME280;41530;52.382;5.270;2023-03-03T04:43:18;102841.22;;;13.61;47.08
55656;BME280;41530;52.382;5.270;2023-03-03T04:45:44;102843.19;;;13.58;47.09
55656;BME280;41530;52.382;5.270;2023-03-03T04:48:11;102854.38;;;13.63;47.24
55656;BME280;41530;52.382;5.270;2023-03-03T04:50:38;102856.31;;;13.59;46.99
55656;BME280;41530;52.382;5.270;2023-03-03T04:53:04;102860.66;;;13.60;47.05
55656;BME280;41530;52.382;5.270;2023-03-03T04:55:31;102861.59;;;13.59;47.20
55656;BME280;41530;52.382;5.270;2023-03-03T04:57:57;102859.81;;;13.60;47.14
55656;BME280;41530;52.382;5.270;2023-03-03T05:00:24;102855.44;;;13.59;47.08
55656;BME280;41530;52.382;5.270;2023-03-03T05:02:50;102848.69;;;13.53;47.00
55656;BME280;41530;52.382;5.270;2023-03-03T05:05:17;102853.84;;;13.56;47.21
55656;BME280;41530;52.382;5.270;2023-03-03T05:07:44;102848.78;;;13.51;47.03
55656;BME280;41530;52.382;5.270;2023-03-03T05:10:11;102839.84;;;13.54;47.10
55656;BME280;41530;52.382;5.270;2023-03-03T05:12:37;102844.28;;;13.53;47.19
55656;BME280;41530;52.382;5.270;2023-03-03T05:15:05;102850.28;;;13.57;47.19
55656;BME280;41530;52.382;5.270;2023-03-03T05:17:31;102846.84;;;13.55;47.13
55656;BME280;41530;52.382;5.270;2023-03-03T05:19:58;102843.47;;;13.51;47.20
55656;BME280;41530;52.382;5.270;2023-03-03T05:22:25;102846.75;;;13.57;47.47
55656;BME280;41530;52.382;5.270;2023-03-03T05:24:52;102847.69;;;13.55;47.13
55656;BME280;41530;52.382;5.270;2023-03-03T05:27:19;102840.69;;;13.54;47.23
55656;BME280;41530;52.382;5.270;2023-03-03T05:29:45;102837.41;;;13.49;47.27
55656;BME280;41530;52.382;5.270;2023-03-03T05:32:12;102846.75;;;13.57;47.09
55656;BME280;41530;52.382;5.270;2023-03-03T05:34:39;102839.19;;;13.49;47.25
55656;BME280;41530;52.382;5.270;2023-03-03T05:37:05;102845.34;;;13.49;47.07
55656;BME280;41530;52.382;5.270;2023-03-03T05:39:33;102847.06;;;13.50;47.08
55656;BME280;41530;52.382;5.270;2023-03-03T05:42:00;102840.06;;;13.49;47.20
55656;BME280;41530;52.382;5.270;2023-03-03T05:44:27;102841.31;;;13.42;47.42
55656;BME280;41530;52.382;5.270;2023-03-03T05:46:54;102854.06;;;13.51;47.09
55656;BME280;41530;52.382;5.270;2023-03-03T05:49:24;102859.34;;;13.51;47.21
55656;BME280;41530;52.382;5.270;2023-03-03T05:51:51;102843.25;;;13.39;47.15
55656;BME280;41530;52.382;5.270;2023-03-03T05:54:18;102855.13;;;13.47;47.33
55656;BME280;41530;52.382;5.270;2023-03-03T05:56:44;102863.06;;;13.47;47.07
55656;BME280;41530;52.382;5.270;2023-03-03T05:59:11;102854.34;;;13.45;47.36
55656;BME280;41530;52.382;5.270;2023-03-03T06:01:38;102856.06;;;13.46;47.24
55656;BME280;41530;52.382;5.270;2023-03-03T06:04:04;102859.75;;;13.44;46.98
55656;BME280;41530;52.382;5.270;2023-03-03T06:06:31;102863.25;;;13.44;47.08
55656;BME280;41530;52.382;5.270;2023-03-03T06:08:57;102867.56;;;13.45;47.28
55656;BME280;41530;52.382;5.270;2023-03-03T06:11:24;102857.97;;;13.44;47.02
55656;BME280;41530;52.382;5.270;2023-03-03T06:13:51;102863.00;;;13.49;47.08
55656;BME280;41530;52.382;5.270;2023-03-03T06:16:17;102860.34;;;13.49;47.27
55656;BME280;41530;52.382;5.270;2023-03-03T06:18:44;102860.44;;;13.47;47.14
55656;BME280;41530;52.382;5.270;2023-03-03T06:21:11;102851.88;;;13.42;47.21
55656;BME280;41530;52.382;5.270;2023-03-03T06:23:37;102863.06;;;13.47;47.24
55656;BME280;41530;52.382;5.270;2023-03-03T06:26:04;102853.59;;;13.43;47.41
55656;BME280;41530;52.382;5.270;2023-03-03T06:28:31;102854.28;;;13.47;47.59
55656;BME280;41530;52.382;5.270;2023-03-03T06:30:57;102854.22;;;13.48;47.34
55656;BME280;41530;52.382;5.270;2023-03-03T06:33:24;102858.56;;;13.49;47.59
55656;BME280;41530;52.382;5.270;2023-03-03T06:35:52;102855.00;;;13.50;47.34
55656;BME280;41530;52.382;5.270;2023-03-03T06:38:20;102870.56;;;13.57;47.06
55656;BME280;41530;52.382;5.270;2023-03-03T06:40:46;102861.84;;;13.54;47.37
55656;BME280;41530;52.382;5.270;2023-03-03T06:43:13;102861.84;;;13.54;47.62
55656;BME280;41530;52.382;5.270;2023-03-03T06:45:40;102870.50;;;13.58;47.22
55656;BME280;41530;52.382;5.270;2023-03-03T06:48:08;102862.00;;;13.51;47.26
55656;BME280;41530;52.382;5.270;2023-03-03T06:50:35;102880.22;;;13.58;47.36
55656;BME280;41530;52.382;5.270;2023-03-03T06:53:10;102882.88;;;13.58;47.13
55656;BME280;41530;52.382;5.270;2023-03-03T06:55:37;102872.44;;;13.54;47.21
55656;BME280;41530;52.382;5.270;2023-03-03T06:58:10;102895.13;;;13.59;47.36
55656;BME280;41530;52.382;5.270;2023-03-03T07:00:40;102893.25;;;13.61;47.40
55656;BME280;41530;52.382;5.270;2023-03-03T07:03:14;102893.25;;;13.61;47.33
55656;BME280;41530;52.382;5.270;2023-03-03T07:05:41;102888.28;;;13.54;47.43
55656;BME280;41530;52.382;5.270;2023-03-03T07:08:14;102893.25;;;13.61;47.21
55656;BME280;41530;52.382;5.270;2023-03-03T07:10:42;102895.06;;;13.60;47.27
55656;BME280;41530;52.382;5.270;2023-03-03T07:15:43;102904.69;;;13.61;47.52
55656;BME280;41530;52.382;5.270;2023-03-03T07:21:21;102898.47;;;13.62;47.36
55656;BME280;41530;52.382;5.270;2023-03-03T07:23:49;102901.06;;;13.64;47.57
55656;BME280;41530;52.382;5.270;2023-03-03T07:28:57;102903.78;;;13.62;47.31
55656;BME280;41530;52.382;5.270;2023-03-03T07:31:33;102910.69;;;13.65;46.81
55656;BME280;41530;52.382;5.270;2023-03-03T07:34:01;102924.94;;;13.62;46.73
55656;BME280;41530;52.382;5.270;2023-03-03T07:36:34;102909.31;;;13.58;47.31
55656;BME280;41530;52.382;5.270;2023-03-03T07:39:34;102920.56;;;13.61;47.15
55656;BME280;41530;52.382;5.270;2023-03-03T07:44:58;102936.38;;;13.63;47.04
55656;BME280;41530;52.382;5.270;2023-03-03T07:47:27;102937.28;;;13.62;47.24
55656;BME280;41530;52.382;5.270;2023-03-03T07:49:59;102935.81;;;13.56;47.14
55656;BME280;41530;52.382;5.270;2023-03-03T07:54:58;102940.19;;;13.57;47.17
55656;BME280;41530;52.382;5.270;2023-03-03T07:57:36;102951.38;;;13.62;47.04
55656;BME280;41530;52.382;5.270;2023-03-03T08:02:57;102948.72;;;13.62;47.28
55656;BME280;41530;52.382;5.270;2023-03-03T08:05:39;102952.31;;;13.61;47.24
55656;BME280;41530;52.382;5.270;2023-03-03T08:16:17;102962.81;;;13.63;47.39
55656;BME280;41530;52.382;5.270;2023-03-03T08:18:48;102957.53;;;13.63;47.63
55656;BME280;41530;52.382;5.270;2023-03-03T08:21:26;102958.53;;;13.60;47.75
55656;BME280;41530;52.382;5.270;2023-03-03T08:23:53;102960.16;;;13.63;47.58
55656;BME280;41530;52.382;5.270;2023-03-03T08:26:20;102961.09;;;13.62;47.71
55656;BME280;41530;52.382;5.270;2023-03-03T08:28:48;102968.88;;;13.65;47.38
55656;BME280;41530;52.382;5.270;2023-03-03T08:31:15;102958.69;;;13.57;47.79
55656;BME280;41530;52.382;5.270;2023-03-03T08:33:59;102964.59;;;13.62;47.97
55656;BME280;41530;52.382;5.270;2023-03-03T08:36:26;102965.25;;;13.67;47.73
55656;BME280;41530;52.382;5.270;2023-03-03T08:38:52;102964.53;;;13.64;47.96
55656;BME280;41530;52.382;5.270;2023-03-03T08:41:19;102964.66;;;13.61;47.86
55656;BME280;41530;52.382;5.270;2023-03-03T08:43:46;102975.75;;;13.69;47.99
55656;BME280;41530;52.382;5.270;2023-03-03T08:46:12;102972.25;;;13.68;48.24
55656;BME280;41530;52.382;5.270;2023-03-03T08:48:39;102972.25;;;13.68;48.14
55656;BME280;41530;52.382;5.270;2023-03-03T08:51:06;102967.81;;;13.69;48.11
55656;BME280;41530;52.382;5.270;2023-03-03T08:53:32;102960.03;;;13.66;47.84
55656;BME280;41530;52.382;5.270;2023-03-03T08:56:02;102965.19;;;13.69;48.36
55656;BME280;41530;52.382;5.270;2023-03-03T08:58:29;102967.81;;;13.69;48.20
55656;BME280;41530;52.382;5.270;2023-03-03T09:01:02;102971.16;;;13.72;48.01
55656;BME280;41530;52.382;5.270;2023-03-03T09:03:29;102972.00;;;13.73;47.98
55656;BME280;41530;52.382;5.270;2023-03-03T09:05:56;102951.94;;;13.69;48.35
55656;BME280;41530;52.382;5.270;2023-03-03T09:08:22;102971.16;;;13.72;48.00
55656;BME280;41530;52.382;5.270;2023-03-03T09:10:49;102964.06;;;13.73;48.04
55656;BME280;41530;52.382;5.270;2023-03-03T09:13:18;102964.63;;;13.79;48.18
55656;BME280;41530;52.382;5.270;2023-03-03T09:15:45;102975.38;;;13.76;48.15
55656;BME280;41530;52.382;5.270;2023-03-03T09:18:19;102983.00;;;13.82;48.11
55656;BME280;41530;52.382;5.270;2023-03-03T09:20:50;102978.59;;;13.83;48.08
55656;BME280;41530;52.382;5.270;2023-03-03T09:23:30;102979.44;;;13.83;47.56
55656;BME280;41530;52.382;5.270;2023-03-03T09:31:48;102983.56;;;13.89;47.61
55656;BME280;41530;52.382;5.270;2023-03-03T09:34:20;102981.69;;;13.91;47.64
55656;BME280;41530;52.382;5.270;2023-03-03T09:36:49;102971.31;;;13.86;48.05
55656;BME280;41530;52.382;5.270;2023-03-03T09:39:26;102985.19;;;13.91;47.76
55656;BME280;41530;52.382;5.270;2023-03-03T09:42:40;102982.47;;;13.93;47.63
55656;BME280;41530;52.382;5.270;2023-03-03T09:45:42;102983.25;;;13.95;47.39
55656;BME280;41530;52.382;5.270;2023-03-03T09:48:47;102984.03;;;13.97;47.04
55656;BME280;41530;52.382;5.270;2023-03-03T09:54:19;102981.22;;;14.00;47.34
55656;BME280;41530;52.382;5.270;2023-03-03T09:59:39;102981.78;;;14.07;47.19
55656;BME280;41530;52.382;5.270;2023-03-03T10:02:34;102977.19;;;14.10;46.97
55656;BME280;41530;52.382;5.270;2023-03-03T10:08:17;102978.66;;;14.16;47.25
55656;BME280;41530;52.382;5.270;2023-03-03T10:11:01;102971.66;;;14.15;48.10
55656;BME280;41530;52.382;5.270;2023-03-03T10:19:00;102982.41;;;14.29;47.92
55656;BME280;41530;52.382;5.270;2023-03-03T10:21:29;102982.25;;;14.32;48.13
55656;BME280;41530;52.382;5.270;2023-03-03T10:24:13;102986.63;;;14.33;47.53
55656;BME280;41530;52.382;5.270;2023-03-03T10:37:56;102987.31;;;14.37;48.89
55656;BME280;41530;52.382;5.270;2023-03-03T10:40:42;102991.97;;;14.32;48.40
55656;BME280;41530;52.382;5.270;2023-03-03T10:43:40;102989.97;;;14.37;48.79
55656;BME280;41530;52.382;5.270;2023-03-03T10:46:27;102998.84;;;14.36;48.78
55656;BME280;41530;52.382;5.270;2023-03-03T10:56:58;102986.53;;;14.35;48.75
55656;BME280;41530;52.382;5.270;2023-03-03T11:05:20;102965.81;;;14.25;48.62
55656;BME280;41530;52.382;5.270;2023-03-03T11:07:57;102982.03;;;14.37;48.93
55656;BME280;41530;52.382;5.270;2023-03-03T11:10:40;102982.88;;;14.37;49.60
55656;BME280;41530;52.382;5.270;2023-03-03T11:13:32;102981.09;;;14.38;49.01
55656;BME280;41530;52.382;5.270;2023-03-03T11:16:12;102985.41;;;14.39;48.95
55656;BME280;41530;52.382;5.270;2023-03-03T11:19:04;102972.28;;;14.37;49.00
55656;BME280;41530;52.382;5.270;2023-03-03T11:21:49;102966.22;;;14.35;49.11
55656;BME280;41530;52.382;5.270;2023-03-03T11:32:50;102968.47;;;14.43;50.12
55656;BME280;41530;52.382;5.270;2023-03-03T11:35:39;102961.53;;;14.40;49.76
55656;BME280;41530;52.382;5.270;2023-03-03T11:46:07;102953.59;;;14.40;49.69
55656;BME280;41530;52.382;5.270;2023-03-03T11:54:03;102966.38;;;14.49;50.08
55656;BME280;41530;52.382;5.270;2023-03-03T11:56:44;102969.88;;;14.50;49.91
55656;BME280;41530;52.382;5.270;2023-03-03T12:04:50;102950.56;;;14.48;50.04
55656;BME280;41530;52.382;5.270;2023-03-03T12:07:30;102945.34;;;14.46;50.07
55656;BME280;41530;52.382;5.270;2023-03-03T12:12:33;102953.88;;;14.51;49.90
55656;BME280;41530;52.382;5.270;2023-03-03T12:15:24;102949.44;;;14.52;49.57
55656;BME280;41530;52.382;5.270;2023-03-03T12:24:06;102955.53;;;14.54;49.62
55656;BME280;41530;52.382;5.270;2023-03-03T12:34:53;102942.19;;;14.55;50.42
55656;BME280;41530;52.382;5.270;2023-03-03T12:40:16;102937.69;;;14.57;50.47
55656;BME280;41530;52.382;5.270;2023-03-03T12:43:02;102932.31;;;14.59;50.54
55656;BME280;41530;52.382;5.270;2023-03-03T12:48:16;102938.47;;;14.59;50.55
55656;BME280;41530;52.382;5.270;2023-03-03T12:56:00;102934.72;;;14.64;50.31
55656;BME280;41530;52.382;5.270;2023-03-03T13:04:12;102926.66;;;14.65;51.07
55656;BME280;41530;52.382;5.270;2023-03-03T13:06:44;102919.69;;;14.64;51.46
55656;BME280;41530;52.382;5.270;2023-03-03T13:15:15;102924.88;;;14.66;50.59
55656;BME280;41530;52.382;5.270;2023-03-03T13:20:38;102927.44;;;14.67;50.64
55656;BME280;41530;52.382;5.270;2023-03-03T13:23:11;102916.19;;;14.64;50.55
55656;BME280;41530;52.382;5.270;2023-03-03T13:25:57;102921.28;;;14.67;50.55
55656;BME280;41530;52.382;5.270;2023-03-03T13:31:45;102911.13;;;14.59;50.97
55656;BME280;41530;52.382;5.270;2023-03-03T13:37:25;102925.50;;;14.71;51.32
55656;BME280;41530;52.382;5.270;2023-03-03T13:39:57;102921.47;;;14.64;51.14
55656;BME280;41530;52.382;5.270;2023-03-03T13:44:56;102924.63;;;14.70;51.00
55656;BME280;41530;52.382;5.270;2023-03-03T13:47:47;102920.53;;;14.65;51.31
55656;BME280;41530;52.382;5.270;2023-03-03T13:50:18;102926.34;;;14.71;51.43
55656;BME280;41530;52.382;5.270;2023-03-03T13:55:34;102920.28;;;14.69;51.57
55656;BME280;41530;52.382;5.270;2023-03-03T13:58:26;102908.97;;;14.66;51.56
55656;BME280;41530;52.382;5.270;2023-03-03T14:01:05;102920.19;;;14.71;51.78
55656;BME280;41530;52.382;5.270;2023-03-03T14:06:22;102914.03;;;14.70;51.66
55656;BME280;41530;52.382;5.270;2023-03-03T14:11:29;102916.53;;;14.73;51.50
55656;BME280;41530;52.382;5.270;2023-03-03T14:17:01;102911.63;;;14.66;51.41
55656;BME280;41530;52.382;5.270;2023-03-03T14:19:47;102914.75;;;14.74;51.86
55656;BME280;41530;52.382;5.270;2023-03-03T14:22:25;102910.44;;;14.71;51.35
55656;BME280;41530;52.382;5.270;2023-03-03T14:25:06;102920.03;;;14.74;51.11
55656;BME280;41530;52.382;5.270;2023-03-03T14:27:39;102904.28;;;14.71;51.31
55656;BME280;41530;52.382;5.270;2023-03-03T14:35:33;102910.28;;;14.74;51.54
55656;BME280;41530;52.382;5.270;2023-03-03T14:38:34;102911.16;;;14.75;51.81
55656;BME280;41530;52.382;5.270;2023-03-03T14:44:00;102899.09;;;14.69;51.17
55656;BME280;41530;52.382;5.270;2023-03-03T14:48:59;102897.06;;;14.74;50.57
55656;BME280;41530;52.382;5.270;2023-03-03T14:51:47;102892.69;;;14.73;51.33
55656;BME280;41530;52.382;5.270;2023-03-03T14:54:20;102894.25;;;14.77;51.93
55656;BME280;41530;52.382;5.270;2023-03-03T14:57:02;102889.78;;;14.78;52.51
55656;BME280;41530;52.382;5.270;2023-03-03T14:59:32;102879.44;;;14.73;51.67
55656;BME280;41530;52.382;5.270;2023-03-03T15:04:31;102877.72;;;14.72;51.13
55656;BME280;41530;52.382;5.270;2023-03-03T15:06:57;102875.78;;;14.76;50.81
55656;BME280;41530;52.382;5.270;2023-03-03T15:09:33;102868.91;;;14.72;51.27
55656;BME280;41530;52.382;5.270;2023-03-03T15:14:46;102871.13;;;14.79;50.70
55656;BME280;41530;52.382;5.270;2023-03-03T15:23:02;102863.09;;;14.81;50.77
55656;BME280;41530;52.382;5.270;2023-03-03T15:28:44;102858.75;;;14.80;50.58
55656;BME280;41530;52.382;5.270;2023-03-03T15:42:12;102848.06;;;14.81;50.96
55656;BME280;41530;52.382;5.270;2023-03-03T15:47:26;102841.25;;;14.77;51.41
55656;BME280;41530;52.382;5.270;2023-03-03T15:53:04;102850.72;;;14.81;51.35
55656;BME280;41530;52.382;5.270;2023-03-03T16:04:05;102844.63;;;14.79;51.14
55656;BME280;41530;52.382;5.270;2023-03-03T16:27:51;102837.03;;;14.73;51.91
55656;BME280;41530;52.382;5.270;2023-03-03T16:35:35;102845.00;;;14.73;51.60
55656;BME280;41530;52.382;5.270;2023-03-03T16:38:26;102851.84;;;14.77;51.49
55656;BME280;41530;52.382;5.270;2023-03-03T16:40:56;102845.78;;;14.75;51.71
55656;BME280;41530;52.382;5.270;2023-03-03T16:52:06;102858.16;;;14.75;51.87
55656;BME280;41530;52.382;5.270;2023-03-03T16:54:46;102849.50;;;14.71;50.93
55656;BME280;41530;52.382;5.270;2023-03-03T16:57:43;102856.44;;;14.74;51.12
55656;BME280;41530;52.382;5.270;2023-03-03T17:00:28;102852.25;;;14.70;51.75
55656;BME280;41530;52.382;5.270;2023-03-03T17:06:04;102852.09;;;14.73;51.58
55656;BME280;41530;52.382;5.270;2023-03-03T17:19:48;102864.31;;;14.75;52.17
55656;BME280;41530;52.382;5.270;2023-03-03T17:22:28;102865.16;;;14.76;52.06
55656;BME280;41530;52.382;5.270;2023-03-03T17:30:41;102865.34;;;14.73;51.83
55656;BME280;41530;52.382;5.270;2023-03-03T17:36:20;102864.56;;;14.71;52.25
55656;BME280;41530;52.382;5.270;2023-03-03T17:41:27;102882.94;;;14.74;52.10
55656;BME280;41530;52.382;5.270;2023-03-03T17:44:21;102875.06;;;14.72;52.05
55656;BME280;41530;52.382;5.270;2023-03-03T17:46:57;102881.22;;;14.73;51.72
55656;BME280;41530;52.382;5.270;2023-03-03T17:58:05;102883.03;;;14.72;52.29
55656;BME280;41530;52.382;5.270;2023-03-03T18:06:35;102891.75;;;14.74;52.57
55656;BME280;41530;52.382;5.270;2023-03-03T18:09:13;102891.75;;;14.74;51.87
55656;BME280;41530;52.382;5.270;2023-03-03T18:11:52;102889.94;;;14.75;52.16
55656;BME280;41530;52.382;5.270;2023-03-03T18:14:32;102894.41;;;14.74;51.68
55656;BME280;41530;52.382;5.270;2023-03-03T18:22:45;102887.53;;;14.70;52.29